createdAt,value
2018-06-09T00:05:28.884Z,99.90
2018-06-09T00:10:32.986Z,99.90
2018-06-09T00:15:37.022Z,99.90
2018-06-09T00:20:40.991Z,99.90
2018-06-09T00:25:49.059Z,99.90
2018-06-09T00:30:53.019Z,99.90
2018-06-09T00:35:57.036Z,99.90
2018-06-09T00:41:01.084Z,99.90
2018-06-09T00:46:05.051Z,99.90
2018-06-09T00:56:24.097Z,99.90
2018-06-09T01:01:28.071Z,99.90
2018-06-09T01:11:35.851Z,99.90
2018-06-09T01:16:39.818Z,99.90
2018-06-09T01:21:43.803Z,99.90
2018-06-09T01:26:47.743Z,99.90
2018-06-09T01:31:51.696Z,99.90
2018-06-09T01:36:55.679Z,99.90
2018-06-09T01:41:59.660Z,99.90
2018-06-09T01:47:03.636Z,99.90
2018-06-09T01:52:07.656Z,99.90
2018-06-09T01:57:11.644Z,99.90
2018-06-09T02:07:19.260Z,99.90
2018-06-09T02:12:23.685Z,99.90
2018-06-09T02:17:27.665Z,99.90
2018-06-09T02:22:32.366Z,99.90
2018-06-09T02:27:36.317Z,99.90
2018-06-09T02:32:40.323Z,99.90
2018-06-09T02:37:44.291Z,99.90
2018-06-09T02:42:48.217Z,99.90
2018-06-09T02:47:52.179Z,99.90
2018-06-09T02:52:56.160Z,99.90
2018-06-09T02:58:00.136Z,99.90
2018-06-09T03:03:04.116Z,99.90
2018-06-09T03:08:08.145Z,99.90
2018-06-09T03:13:12.188Z,99.90
2018-06-09T03:18:16.157Z,99.90
2018-06-09T03:23:20.146Z,99.90
2018-06-09T03:28:24.152Z,99.90
2018-06-09T03:33:28.137Z,99.90
2018-06-09T03:38:32.100Z,99.90
2018-06-09T03:43:36.058Z,99.90
2018-06-09T03:48:40.015Z,99.90
2018-06-09T03:58:47.620Z,99.90
2018-06-09T04:03:51.591Z,99.90
2018-06-09T04:13:59.207Z,99.90
2018-06-09T04:19:03.127Z,99.90
2018-06-09T04:24:07.123Z,99.90
2018-06-09T04:29:11.122Z,99.90
2018-06-09T04:34:15.140Z,99.90
2018-06-09T04:39:19.104Z,99.90
2018-06-09T04:44:23.099Z,99.90
2018-06-09T04:49:27.144Z,99.90
2018-06-09T04:54:31.931Z,99.90
2018-06-09T04:59:35.901Z,99.90
2018-06-09T05:04:39.879Z,99.90
2018-06-09T05:09:43.903Z,99.90
2018-06-09T05:14:47.911Z,99.90
2018-06-09T05:19:51.882Z,99.90
2018-06-09T05:24:55.859Z,99.90
2018-06-09T05:29:59.871Z,99.90
2018-06-09T05:35:03.851Z,99.90
2018-06-09T05:40:07.853Z,99.90
2018-06-09T05:45:11.855Z,99.90
2018-06-09T05:50:15.834Z,99.90
2018-06-09T06:00:23.444Z,98.30
2018-06-09T06:05:27.458Z,99.90
2018-06-09T06:10:31.465Z,99.50
2018-06-09T06:15:35.516Z,99.40
2018-06-09T06:20:39.480Z,99.00
2018-06-09T06:25:43.456Z,98.60
2018-06-09T06:30:47.401Z,98.60
2018-06-09T06:35:51.369Z,97.80
2018-06-09T06:40:55.368Z,97.50
2018-06-09T06:45:59.326Z,97.90
2018-06-09T06:51:03.430Z,96.70
2018-06-09T06:56:07.462Z,96.10
2018-06-09T07:01:11.446Z,96.00
2018-06-09T07:06:15.427Z,96.00
2018-06-09T07:11:19.395Z,95.70
2018-06-09T07:16:23.458Z,95.70
2018-06-09T07:21:27.475Z,95.30
2018-06-09T07:26:31.465Z,94.90
2018-06-09T07:31:35.459Z,94.50
2018-06-09T07:36:39.424Z,93.60
2018-06-09T07:41:43.399Z,92.60
2018-06-09T07:46:47.364Z,92.10
2018-06-09T07:51:51.338Z,91.70
2018-06-09T07:56:55.331Z,91.90
2018-06-09T08:01:59.328Z,92.20
2018-06-09T08:07:03.296Z,92.40
2018-06-09T08:12:07.323Z,92.60
2018-06-09T08:17:11.368Z,91.30
2018-06-09T08:22:15.355Z,91.00
2018-06-09T08:27:19.346Z,91.00
2018-06-09T08:32:23.344Z,91.10
2018-06-09T08:37:27.363Z,90.90
2018-06-09T08:47:35.745Z,90.10
2018-06-09T08:52:39.737Z,89.70
2018-06-09T08:57:43.722Z,89.40
2018-06-09T09:02:47.777Z,90.00
2018-06-09T09:12:56.159Z,87.80
2018-06-09T09:18:01.179Z,86.00
2018-06-09T09:28:08.900Z,81.70
2018-06-09T09:33:12.883Z,78.70
2018-06-09T09:38:16.879Z,77.20
2018-06-09T09:43:20.849Z,73.90
2018-06-09T09:48:24.832Z,74.20
2018-06-09T09:53:28.804Z,73.50
2018-06-09T09:58:32.820Z,73.70
2018-06-09T10:03:36.783Z,75.80
2018-06-09T10:08:40.787Z,70.20
2018-06-09T10:13:44.780Z,62.50
2018-06-09T10:18:48.812Z,68.20
2018-06-09T10:23:52.782Z,65.90
2018-06-09T10:28:56.766Z,62.50
2018-06-09T10:34:00.729Z,62.40
2018-06-09T10:39:07.010Z,62.80
2018-06-09T10:44:10.986Z,58.10
2018-06-09T10:49:14.975Z,60.30
2018-06-09T10:54:18.943Z,61.60
2018-06-09T10:59:22.972Z,60.30
2018-06-09T11:04:26.931Z,59.30
2018-06-09T11:09:30.976Z,57.70
2018-06-09T11:14:34.995Z,55.70
2018-06-09T11:19:39.114Z,58.30
2018-06-09T11:24:43.076Z,56.50
2018-06-09T11:29:47.072Z,57.90
2018-06-09T11:34:51.001Z,56.10
2018-06-09T11:39:54.992Z,55.30
2018-06-09T11:44:58.992Z,53.80
2018-06-09T11:50:02.960Z,54.60
2018-06-09T11:55:06.955Z,54.60
2018-06-09T12:00:11.023Z,55.30
2018-06-09T12:05:14.992Z,52.80
2018-06-09T12:10:18.959Z,52.20
2018-06-09T12:15:22.951Z,53.70
2018-06-09T12:20:27.115Z,52.30
2018-06-09T12:25:31.087Z,51.20
2018-06-09T12:30:35.042Z,49.00
2018-06-09T12:35:39.062Z,50.60
2018-06-09T12:40:43.047Z,51.10
2018-06-09T12:50:50.664Z,50.10
2018-06-09T12:55:54.674Z,46.80
2018-06-09T13:00:58.676Z,50.00
2018-06-09T13:06:02.634Z,51.00
2018-06-09T13:11:06.615Z,49.70
2018-06-09T13:16:10.627Z,50.30
2018-06-09T13:21:14.614Z,47.20
2018-06-09T13:26:18.601Z,48.10
2018-06-09T13:31:22.590Z,48.10
2018-06-09T13:36:26.559Z,47.50
2018-06-09T13:41:30.544Z,47.90
2018-06-09T13:46:34.479Z,49.10
2018-06-09T13:51:38.443Z,49.10
2018-06-09T13:56:42.425Z,49.70
2018-06-09T14:01:46.394Z,51.20
2018-06-09T14:06:50.372Z,49.80
2018-06-09T14:11:54.319Z,51.00
2018-06-09T14:16:58.290Z,50.70
2018-06-09T14:22:02.282Z,50.50
2018-06-09T14:27:06.247Z,51.00
2018-06-09T14:32:10.240Z,50.70
2018-06-09T14:37:14.222Z,51.40
2018-06-09T14:42:18.185Z,51.90
2018-06-09T14:47:22.215Z,51.30
2018-06-09T14:52:26.176Z,51.90
2018-06-09T14:57:30.200Z,52.30
2018-06-09T15:02:34.245Z,52.40
2018-06-09T15:07:38.183Z,53.40
2018-06-09T15:12:42.269Z,53.00
2018-06-09T15:17:46.242Z,53.00
2018-06-09T15:22:50.201Z,52.80
2018-06-09T15:27:54.187Z,52.80
2018-06-09T15:32:58.171Z,52.90
2018-06-09T15:38:02.157Z,57.20
2018-06-09T15:43:06.132Z,55.80
2018-06-09T15:48:10.115Z,55.70
2018-06-09T15:53:14.108Z,56.00
2018-06-09T15:58:18.115Z,56.10
2018-06-09T16:03:22.111Z,57.60
2018-06-09T16:09:50.599Z,58.20
2018-06-09T16:14:54.633Z,57.80
2018-06-09T16:19:58.582Z,58.20
2018-06-09T16:25:02.586Z,58.10
2018-06-09T16:30:06.575Z,58.90
2018-06-09T16:35:10.562Z,57.70
2018-06-09T16:40:14.511Z,58.40
2018-06-09T16:45:49.375Z,59.00
2018-06-09T16:50:53.366Z,60.00
2018-06-09T16:55:57.339Z,60.60
2018-06-09T17:01:01.401Z,60.60
2018-06-09T17:06:05.348Z,62.10
2018-06-09T17:11:09.367Z,64.50
2018-06-09T17:16:13.384Z,65.20
2018-06-09T17:21:17.310Z,66.20
2018-06-09T17:26:21.281Z,67.70
2018-06-09T17:31:25.292Z,68.60
2018-06-09T17:36:29.287Z,69.30
2018-06-09T17:41:33.251Z,70.10
2018-06-09T17:46:37.223Z,70.50
2018-06-09T17:51:41.218Z,72.30
2018-06-09T17:56:46.004Z,73.10
2018-06-09T18:01:49.955Z,73.80
2018-06-09T18:06:54.031Z,75.70
2018-06-09T18:11:58.931Z,75.00
2018-06-09T18:17:03.988Z,75.50
2018-06-09T18:22:08.968Z,76.20
2018-06-09T18:27:13.044Z,77.50
2018-06-09T18:32:17.024Z,77.20
2018-06-09T18:37:21.019Z,77.80
2018-06-09T18:42:25.144Z,78.20
2018-06-09T18:52:32.717Z,80.00
2018-06-09T18:57:36.733Z,80.30
2018-06-09T19:02:40.728Z,80.50
2018-06-09T19:07:44.759Z,80.90
2018-06-09T19:12:48.759Z,81.60
2018-06-09T19:17:52.787Z,82.10
2018-06-09T19:28:00.751Z,83.80
2018-06-09T19:33:04.711Z,84.20
2018-06-09T19:38:08.699Z,84.70
2018-06-09T19:43:14.242Z,85.00
2018-06-09T19:48:18.242Z,85.10
2018-06-09T19:53:22.248Z,85.40
2018-06-09T19:58:26.221Z,85.30
2018-06-09T20:08:33.831Z,85.70
2018-06-09T20:13:37.843Z,86.30
2018-06-09T20:18:41.826Z,87.10
2018-06-09T20:23:45.850Z,88.00
2018-06-09T20:28:50.665Z,88.80
2018-06-09T20:33:54.660Z,89.20
2018-06-09T20:38:58.666Z,89.50
2018-06-09T20:44:02.762Z,89.90
2018-06-09T20:49:06.862Z,90.20
2018-06-09T20:54:10.863Z,90.60
2018-06-09T20:59:15.749Z,90.90
2018-06-09T21:09:23.416Z,92.30
2018-06-09T21:14:27.405Z,92.70
2018-06-09T21:19:31.392Z,93.10
2018-06-09T21:24:35.848Z,93.50
2018-06-09T21:29:49.013Z,93.90
2018-06-09T21:35:06.130Z,94.30
2018-06-09T21:40:21.335Z,94.80
2018-06-09T21:45:58.028Z,94.70
2018-06-09T21:51:02.086Z,94.70
2018-06-09T21:56:06.055Z,94.70
2018-06-09T22:01:10.932Z,95.30
2018-06-09T22:06:14.906Z,95.50
2018-06-09T22:11:18.924Z,95.60
2018-06-09T22:16:23.558Z,95.70
2018-06-09T22:21:27.542Z,95.90
2018-06-09T22:26:31.512Z,95.90
2018-06-09T22:31:36.880Z,96.20
2018-06-09T22:41:45.259Z,96.80
2018-06-09T22:46:49.215Z,96.50
2018-06-09T22:51:53.147Z,96.30
2018-06-09T22:56:57.099Z,96.50
2018-06-09T23:02:01.153Z,96.80
2018-06-09T23:07:05.116Z,96.90
2018-06-09T23:12:09.099Z,96.60
2018-06-09T23:17:13.093Z,96.60
2018-06-09T23:22:17.131Z,96.50
2018-06-09T23:27:21.062Z,96.70
2018-06-09T23:32:25.212Z,96.90
2018-06-09T23:37:29.161Z,96.70
2018-06-09T23:42:33.099Z,96.80
2018-06-09T23:47:37.095Z,97.00
2018-06-09T23:57:44.709Z,99.90
